sensor_id;sensor_type;location;lat;lon;timestamp;temperature;humidity
4356;DHT22;64374;51.482;7.408;2023-12-20T00:00:51;9.50;99.90
4356;DHT22;64374;51.482;7.408;2023-12-20T00:03:38;9.70;99.90
4356;DHT22;64374;51.482;7.408;2023-12-20T00:06:31;9.70;99.90
4356;DHT22;64374;51.482;7.408;2023-12-20T00:09:21;9.60;99.90
4356;DHT22;64374;51.482;7.408;2023-12-20T00:12:10;9.60;99.90
4356;DHT22;64374;51.482;7.408;2023-12-20T00:14:57;9.60;99.90
4356;DHT22;64374;51.482;7.408;2023-12-20T00:17:43;9.50;99.90
4356;DHT22;64374;51.482;7.408;2023-12-20T00:20:30;9.60;99.90
4356;DHT22;64374;51.482;7.408;2023-12-20T00:23:18;9.70;99.90
4356;DHT22;64374;51.482;7.408;2023-12-20T00:26:05;9.40;99.90
4356;DHT22;64374;51.482;7.408;2023-12-20T00:28:51;9.40;99.90
4356;DHT22;64374;51.482;7.408;2023-12-20T00:31:20;9.40;99.90
4356;DHT22;64374;51.482;7.408;2023-12-20T00:33:50;9.20;99.90
4356;DHT22;64374;51.482;7.408;2023-12-20T00:36:19;9.30;99.90
4356;DHT22;64374;51.482;7.408;2023-12-20T00:38:51;9.50;99.90
4356;DHT22;64374;51.482;7.408;2023-12-20T00:41:21;9.50;99.90
4356;DHT22;64374;51.482;7.408;2023-12-20T00:43:53;9.30;99.90
4356;DHT22;64374;51.482;7.408;2023-12-20T00:46:21;9.20;99.90
4356;DHT22;64374;51.482;7.408;2023-12-20T00:48:49;9.20;99.90
4356;DHT22;64374;51.482;7.408;2023-12-20T00:51:36;9.30;99.90
4356;DHT22;64374;51.482;7.408;2023-12-20T00:54:27;9.20;99.90
4356;DHT22;64374;51.482;7.408;2023-12-20T00:57:14;9.00;99.90
4356;DHT22;64374;51.482;7.408;2023-12-20T01:00:04;8.90;99.90
4356;DHT22;64374;51.482;7.408;2023-12-20T01:02:50;9.00;99.90
4356;DHT22;64374;51.482;7.408;2023-12-20T01:05:37;8.50;99.90
4356;DHT22;64374;51.482;7.408;2023-12-20T01:08:28;8.50;99.90
4356;DHT22;64374;51.482;7.408;2023-12-20T01:11:16;8.70;99.90
4356;DHT22;64374;51.482;7.408;2023-12-20T01:14:05;8.60;99.90
4356;DHT22;64374;51.482;7.408;2023-12-20T01:16:51;8.80;99.90
4356;DHT22;64374;51.482;7.408;2023-12-20T01:19:22;8.70;99.90
4356;DHT22;64374;51.482;7.408;2023-12-20T01:21:51;8.60;99.90
4356;DHT22;64374;51.482;7.408;2023-12-20T01:24:22;8.60;99.90
4356;DHT22;64374;51.482;7.408;2023-12-20T01:26:52;8.90;99.90
4356;DHT22;64374;51.482;7.408;2023-12-20T01:29:25;8.80;99.90
4356;DHT22;64374;51.482;7.408;2023-12-20T01:31:53;8.70;99.90
4356;DHT22;64374;51.482;7.408;2023-12-20T01:34:21;8.90;99.90
4356;DHT22;64374;51.482;7.408;2023-12-20T01:36:52;8.90;99.90
4356;DHT22;64374;51.482;7.408;2023-12-20T01:39:24;9.00;99.90
4356;DHT22;64374;51.482;7.408;2023-12-20T01:41:57;9.00;99.90
4356;DHT22;64374;51.482;7.408;2023-12-20T01:44:26;8.90;99.90
4356;DHT22;64374;51.482;7.408;2023-12-20T01:46:54;9.00;99.90
4356;DHT22;64374;51.482;7.408;2023-12-20T01:49:22;8.90;99.90
4356;DHT22;64374;51.482;7.408;2023-12-20T01:52:11;9.00;99.90
4356;DHT22;64374;51.482;7.408;2023-12-20T01:55:06;8.80;99.90
4356;DHT22;64374;51.482;7.408;2023-12-20T01:58:01;8.70;99.90
4356;DHT22;64374;51.482;7.408;2023-12-20T02:00:48;8.60;99.90
4356;DHT22;64374;51.482;7.408;2023-12-20T02:03:45;8.70;99.90
4356;DHT22;64374;51.482;7.408;2023-12-20T02:06:34;8.50;99.90
4356;DHT22;64374;51.482;7.408;2023-12-20T02:09:21;8.70;99.90
4356;DHT22;64374;51.482;7.408;2023-12-20T02:12:08;8.70;99.90
4356;DHT22;64374;51.482;7.408;2023-12-20T02:15:05;8.60;99.90
4356;DHT22;64374;51.482;7.408;2023-12-20T02:17:52;8.70;99.90
4356;DHT22;64374;51.482;7.408;2023-12-20T02:20:39;8.70;99.90
4356;DHT22;64374;51.482;7.408;2023-12-20T02:23:27;8.90;99.90
4356;DHT22;64374;51.482;7.408;2023-12-20T02:26:16;8.80;99.90
4356;DHT22;64374;51.482;7.408;2023-12-20T02:29:04;8.80;99.90
4356;DHT22;64374;51.482;7.408;2023-12-20T02:31:51;8.80;99.90
4356;DHT22;64374;51.482;7.408;2023-12-20T02:34:37;8.70;99.90
4356;DHT22;64374;51.482;7.408;2023-12-20T02:37:24;8.50;99.90
4356;DHT22;64374;51.482;7.408;2023-12-20T02:40:14;8.70;99.90
4356;DHT22;64374;51.482;7.408;2023-12-20T02:43:01;8.70;99.90
4356;DHT22;64374;51.482;7.408;2023-12-20T02:45:49;8.30;99.90
4356;DHT22;64374;51.482;7.408;2023-12-20T02:48:35;8.70;99.90
4356;DHT22;64374;51.482;7.408;2023-12-20T02:51:22;8.60;99.90
4356;DHT22;64374;51.482;7.408;2023-12-20T02:54:09;8.50;99.90
4356;DHT22;64374;51.482;7.408;2023-12-20T02:56:57;8.60;99.90
4356;DHT22;64374;51.482;7.408;2023-12-20T02:59:46;8.50;99.90
4356;DHT22;64374;51.482;7.408;2023-12-20T03:02:35;8.40;99.90
4356;DHT22;64374;51.482;7.408;2023-12-20T03:05:22;8.40;99.90
4356;DHT22;64374;51.482;7.408;2023-12-20T03:08:14;8.50;99.90
4356;DHT22;64374;51.482;7.408;2023-12-20T03:11:01;8.70;99.90
4356;DHT22;64374;51.482;7.408;2023-12-20T03:13:51;8.70;99.90
4356;DHT22;64374;51.482;7.408;2023-12-20T03:16:38;8.70;99.90
4356;DHT22;64374;51.482;7.408;2023-12-20T03:19:24;8.30;99.90
4356;DHT22;64374;51.482;7.408;2023-12-20T03:21:56;8.30;99.90
4356;DHT22;64374;51.482;7.408;2023-12-20T03:24:28;8.30;99.90
4356;DHT22;64374;51.482;7.408;2023-12-20T03:26:56;8.20;99.90
4356;DHT22;64374;51.482;7.408;2023-12-20T03:29:26;8.30;99.90
4356;DHT22;64374;51.482;7.408;2023-12-20T03:31:55;8.10;99.90
4356;DHT22;64374;51.482;7.408;2023-12-20T03:34:42;8.10;99.90
4356;DHT22;64374;51.482;7.408;2023-12-20T03:37:31;7.80;99.90
4356;DHT22;64374;51.482;7.408;2023-12-20T03:40:17;7.90;99.90
4356;DHT22;64374;51.482;7.408;2023-12-20T03:43:05;8.30;99.90
4356;DHT22;64374;51.482;7.408;2023-12-20T03:45:53;8.00;99.90
4356;DHT22;64374;51.482;7.408;2023-12-20T03:48:40;8.10;99.90
4356;DHT22;64374;51.482;7.408;2023-12-20T03:51:26;8.10;99.90
4356;DHT22;64374;51.482;7.408;2023-12-20T03:54:15;8.10;99.90
4356;DHT22;64374;51.482;7.408;2023-12-20T03:57:02;8.30;99.90
4356;DHT22;64374;51.482;7.408;2023-12-20T03:59:51;8.20;99.90
4356;DHT22;64374;51.482;7.408;2023-12-20T04:02:41;7.80;99.90
4356;DHT22;64374;51.482;7.408;2023-12-20T04:05:28;7.70;99.90
4356;DHT22;64374;51.482;7.408;2023-12-20T04:08:17;7.60;99.90
4356;DHT22;64374;51.482;7.408;2023-12-20T04:11:04;7.90;99.90
4356;DHT22;64374;51.482;7.408;2023-12-20T04:13:53;8.20;99.90
4356;DHT22;64374;51.482;7.408;2023-12-20T04:16:40;7.70;99.90
4356;DHT22;64374;51.482;7.408;2023-12-20T04:19:33;7.70;99.90
4356;DHT22;64374;51.482;7.408;2023-12-20T04:22:20;8.10;99.90
4356;DHT22;64374;51.482;7.408;2023-12-20T04:25:08;7.70;99.90
4356;DHT22;64374;51.482;7.408;2023-12-20T04:28:00;7.40;99.90
4356;DHT22;64374;51.482;7.408;2023-12-20T04:30:47;7.60;99.90
4356;DHT22;64374;51.482;7.408;2023-12-20T04:33:34;7.80;99.90
4356;DHT22;64374;51.482;7.408;2023-12-20T04:36:22;7.50;99.90
4356;DHT22;64374;51.482;7.408;2023-12-20T04:39:12;7.40;99.90
4356;DHT22;64374;51.482;7.408;2023-12-20T04:42:02;7.50;99.90
4356;DHT22;64374;51.482;7.408;2023-12-20T04:44:51;7.80;99.90
4356;DHT22;64374;51.482;7.408;2023-12-20T04:47:41;7.60;99.90
4356;DHT22;64374;51.482;7.408;2023-12-20T04:50:29;7.70;99.90
4356;DHT22;64374;51.482;7.408;2023-12-20T04:53:16;7.60;99.90
4356;DHT22;64374;51.482;7.408;2023-12-20T04:56:04;7.50;99.90
4356;DHT22;64374;51.482;7.408;2023-12-20T04:58:51;7.60;99.90
4356;DHT22;64374;51.482;7.408;2023-12-20T05:01:39;7.60;99.90
4356;DHT22;64374;51.482;7.408;2023-12-20T05:04:27;7.60;99.90
4356;DHT22;64374;51.482;7.408;2023-12-20T05:07:16;7.60;99.90
4356;DHT22;64374;51.482;7.408;2023-12-20T05:10:05;7.70;99.90
4356;DHT22;64374;51.482;7.408;2023-12-20T05:12:53;8.00;99.90
4356;DHT22;64374;51.482;7.408;2023-12-20T05:15:40;8.00;99.90
4356;DHT22;64374;51.482;7.408;2023-12-20T05:18:27;7.40;99.90
4356;DHT22;64374;51.482;7.408;2023-12-20T05:21:16;7.50;99.90
4356;DHT22;64374;51.482;7.408;2023-12-20T05:24:03;7.80;99.90
4356;DHT22;64374;51.482;7.408;2023-12-20T05:26:51;7.50;99.90
4356;DHT22;64374;51.482;7.408;2023-12-20T05:29:45;7.30;99.90
4356;DHT22;64374;51.482;7.408;2023-12-20T05:32:39;7.30;99.90
4356;DHT22;64374;51.482;7.408;2023-12-20T05:35:26;7.20;99.90
4356;DHT22;64374;51.482;7.408;2023-12-20T05:38:19;7.10;99.90
4356;DHT22;64374;51.482;7.408;2023-12-20T05:41:06;7.20;99.90
4356;DHT22;64374;51.482;7.408;2023-12-20T05:43:40;7.10;99.90
4356;DHT22;64374;51.482;7.408;2023-12-20T05:46:10;7.00;99.90
4356;DHT22;64374;51.482;7.408;2023-12-20T05:48:39;7.10;99.90
4356;DHT22;64374;51.482;7.408;2023-12-20T05:51:11;7.30;99.90
4356;DHT22;64374;51.482;7.408;2023-12-20T05:53:42;7.30;99.90
4356;DHT22;64374;51.482;7.408;2023-12-20T05:56:30;7.30;99.90
4356;DHT22;64374;51.482;7.408;2023-12-20T05:59:23;7.30;99.90
4356;DHT22;64374;51.482;7.408;2023-12-20T06:02:09;7.50;99.90
4356;DHT22;64374;51.482;7.408;2023-12-20T06:04:56;7.50;99.90
4356;DHT22;64374;51.482;7.408;2023-12-20T06:07:45;7.70;99.90
4356;DHT22;64374;51.482;7.408;2023-12-20T06:10:37;7.60;99.90
4356;DHT22;64374;51.482;7.408;2023-12-20T06:13:28;7.70;99.90
4356;DHT22;64374;51.482;7.408;2023-12-20T06:16:18;7.60;99.90
4356;DHT22;64374;51.482;7.408;2023-12-20T06:19:05;7.40;99.90
4356;DHT22;64374;51.482;7.408;2023-12-20T06:21:52;7.10;99.90
4356;DHT22;64374;51.482;7.408;2023-12-20T06:24:39;7.30;99.90
4356;DHT22;64374;51.482;7.408;2023-12-20T06:27:26;7.20;99.90
4356;DHT22;64374;51.482;7.408;2023-12-20T06:30:15;7.20;99.90
4356;DHT22;64374;51.482;7.408;2023-12-20T06:33:04;7.30;99.90
4356;DHT22;64374;51.482;7.408;2023-12-20T06:35:52;7.30;99.90
4356;DHT22;64374;51.482;7.408;2023-12-20T06:38:41;7.60;99.90
4356;DHT22;64374;51.482;7.408;2023-12-20T06:41:13;7.40;99.90
4356;DHT22;64374;51.482;7.408;2023-12-20T06:43:42;7.30;99.90
4356;DHT22;64374;51.482;7.408;2023-12-20T06:46:16;7.10;99.90
4356;DHT22;64374;51.482;7.408;2023-12-20T06:48:49;7.20;99.90
4356;DHT22;64374;51.482;7.408;2023-12-20T06:51:36;7.40;99.90
4356;DHT22;64374;51.482;7.408;2023-12-20T06:54:22;7.30;99.90
4356;DHT22;64374;51.482;7.408;2023-12-20T06:57:11;7.40;99.90
4356;DHT22;64374;51.482;7.408;2023-12-20T06:59:58;7.20;99.90
4356;DHT22;64374;51.482;7.408;2023-12-20T07:02:53;7.10;99.90
4356;DHT22;64374;51.482;7.408;2023-12-20T07:05:41;7.10;99.90
4356;DHT22;64374;51.482;7.408;2023-12-20T07:08:28;7.00;99.90
4356;DHT22;64374;51.482;7.408;2023-12-20T07:11:14;7.00;99.90
4356;DHT22;64374;51.482;7.408;2023-12-20T07:14:00;7.40;99.90
4356;DHT22;64374;51.482;7.408;2023-12-20T07:16:47;7.40;99.90
4356;DHT22;64374;51.482;7.408;2023-12-20T07:19:34;7.40;99.90
4356;DHT22;64374;51.482;7.408;2023-12-20T07:22:22;7.30;99.90
4356;DHT22;64374;51.482;7.408;2023-12-20T07:25:09;7.00;99.90
4356;DHT22;64374;51.482;7.408;2023-12-20T07:27:56;7.00;99.90
4356;DHT22;64374;51.482;7.408;2023-12-20T07:30:45;7.50;99.90
4356;DHT22;64374;51.482;7.408;2023-12-20T07:33:32;7.50;99.90
4356;DHT22;64374;51.482;7.408;2023-12-20T07:36:24;7.50;99.90
4356;DHT22;64374;51.482;7.408;2023-12-20T07:39:12;8.10;99.90
4356;DHT22;64374;51.482;7.408;2023-12-20T07:41:58;8.20;99.90
4356;DHT22;64374;51.482;7.408;2023-12-20T07:44:45;7.60;99.90
4356;DHT22;64374;51.482;7.408;2023-12-20T07:47:32;7.60;99.90
4356;DHT22;64374;51.482;7.408;2023-12-20T07:50:19;7.50;99.90
4356;DHT22;64374;51.482;7.408;2023-12-20T07:53:07;7.50;99.90
4356;DHT22;64374;51.482;7.408;2023-12-20T07:55:55;7.90;99.90
4356;DHT22;64374;51.482;7.408;2023-12-20T07:58:45;7.40;99.90
4356;DHT22;64374;51.482;7.408;2023-12-20T08:01:41;7.90;99.90
4356;DHT22;64374;51.482;7.408;2023-12-20T08:04:28;8.10;99.90
4356;DHT22;64374;51.482;7.408;2023-12-20T08:07:17;7.70;99.90
4356;DHT22;64374;51.482;7.408;2023-12-20T08:10:05;7.90;99.90
4356;DHT22;64374;51.482;7.408;2023-12-20T08:12:55;7.80;99.90
4356;DHT22;64374;51.482;7.408;2023-12-20T08:15:44;7.80;99.90
4356;DHT22;64374;51.482;7.408;2023-12-20T08:18:33;7.90;99.90
4356;DHT22;64374;51.482;7.408;2023-12-20T08:21:22;7.60;99.90
4356;DHT22;64374;51.482;7.408;2023-12-20T08:24:09;7.50;99.90
4356;DHT22;64374;51.482;7.408;2023-12-20T08:27:03;7.60;99.90
4356;DHT22;64374;51.482;7.408;2023-12-20T08:29:54;7.60;99.90
4356;DHT22;64374;51.482;7.408;2023-12-20T08:32:43;7.70;99.90
4356;DHT22;64374;51.482;7.408;2023-12-20T08:35:30;7.40;99.90
4356;DHT22;64374;51.482;7.408;2023-12-20T08:38:17;7.70;99.90
4356;DHT22;64374;51.482;7.408;2023-12-20T08:41:04;8.10;99.90
4356;DHT22;64374;51.482;7.408;2023-12-20T08:43:54;8.00;99.90
4356;DHT22;64374;51.482;7.408;2023-12-20T08:46:41;7.90;99.90
4356;DHT22;64374;51.482;7.408;2023-12-20T08:49:28;7.40;99.90
4356;DHT22;64374;51.482;7.408;2023-12-20T08:52:18;7.50;99.90
4356;DHT22;64374;51.482;7.408;2023-12-20T08:55:05;7.40;99.90
4356;DHT22;64374;51.482;7.408;2023-12-20T08:57:52;7.50;99.90
4356;DHT22;64374;51.482;7.408;2023-12-20T09:00:44;7.80;99.90
4356;DHT22;64374;51.482;7.408;2023-12-20T09:03:37;7.60;99.90
4356;DHT22;64374;51.482;7.408;2023-12-20T09:06:24;7.70;99.90
4356;DHT22;64374;51.482;7.408;2023-12-20T09:09:11;7.40;99.90
4356;DHT22;64374;51.482;7.408;2023-12-20T09:11:59;7.30;99.90
4356;DHT22;64374;51.482;7.408;2023-12-20T09:14:46;7.40;99.90
4356;DHT22;64374;51.482;7.408;2023-12-20T09:17:33;7.50;99.90
4356;DHT22;64374;51.482;7.408;2023-12-20T09:20:21;7.30;99.90
4356;DHT22;64374;51.482;7.408;2023-12-20T09:23:11;7.50;99.90
4356;DHT22;64374;51.482;7.408;2023-12-20T09:25:57;7.60;99.90
4356;DHT22;64374;51.482;7.408;2023-12-20T09:28:53;7.60;99.90
4356;DHT22;64374;51.482;7.408;2023-12-20T09:31:40;7.50;99.90
4356;DHT22;64374;51.482;7.408;2023-12-20T09:34:29;7.60;99.90
4356;DHT22;64374;51.482;7.408;2023-12-20T09:37:20;7.60;99.90
4356;DHT22;64374;51.482;7.408;2023-12-20T09:40:10;7.80;99.90
4356;DHT22;64374;51.482;7.408;2023-12-20T09:43:01;7.50;99.90
4356;DHT22;64374;51.482;7.408;2023-12-20T09:45:53;7.40;99.90
4356;DHT22;64374;51.482;7.408;2023-12-20T09:48:41;7.40;99.90
4356;DHT22;64374;51.482;7.408;2023-12-20T09:51:29;7.50;99.90
4356;DHT22;64374;51.482;7.408;2023-12-20T09:54:17;7.60;99.90
4356;DHT22;64374;51.482;7.408;2023-12-20T09:57:05;7.60;99.90
4356;DHT22;64374;51.482;7.408;2023-12-20T09:59:52;7.60;99.90
4356;DHT22;64374;51.482;7.408;2023-12-20T10:02:45;7.60;99.90
4356;DHT22;64374;51.482;7.408;2023-12-20T10:05:43;7.90;99.90
4356;DHT22;64374;51.482;7.408;2023-12-20T10:08:32;7.80;99.90
4356;DHT22;64374;51.482;7.408;2023-12-20T10:11:22;7.60;99.90
4356;DHT22;64374;51.482;7.408;2023-12-20T10:13:51;7.80;99.90
4356;DHT22;64374;51.482;7.408;2023-12-20T10:16:24;7.70;99.90
4356;DHT22;64374;51.482;7.408;2023-12-20T10:18:54;7.60;99.90
4356;DHT22;64374;51.482;7.408;2023-12-20T10:21:23;7.50;99.90
4356;DHT22;64374;51.482;7.408;2023-12-20T10:23:53;7.60;99.90
4356;DHT22;64374;51.482;7.408;2023-12-20T10:26:24;7.80;99.90
4356;DHT22;64374;51.482;7.408;2023-12-20T10:28:59;7.60;99.90
4356;DHT22;64374;51.482;7.408;2023-12-20T10:31:28;7.80;99.90
4356;DHT22;64374;51.482;7.408;2023-12-20T10:34:06;7.60;99.90
4356;DHT22;64374;51.482;7.408;2023-12-20T10:36:54;7.60;99.90
4356;DHT22;64374;51.482;7.408;2023-12-20T10:39:49;7.50;99.90
4356;DHT22;64374;51.482;7.408;2023-12-20T10:42:39;7.50;99.90
4356;DHT22;64374;51.482;7.408;2023-12-20T10:45:27;7.20;99.90
4356;DHT22;64374;51.482;7.408;2023-12-20T10:48:15;7.60;99.90
4356;DHT22;64374;51.482;7.408;2023-12-20T10:51:04;8.00;99.90
4356;DHT22;64374;51.482;7.408;2023-12-20T10:53:53;8.30;99.90
4356;DHT22;64374;51.482;7.408;2023-12-20T10:56:40;7.90;99.90
4356;DHT22;64374;51.482;7.408;2023-12-20T10:59:33;7.80;99.90
4356;DHT22;64374;51.482;7.408;2023-12-20T11:02:26;7.80;99.90
4356;DHT22;64374;51.482;7.408;2023-12-20T11:05:31;7.60;99.90
4356;DHT22;64374;51.482;7.408;2023-12-20T11:08:25;7.70;99.90
4356;DHT22;64374;51.482;7.408;2023-12-20T11:11:14;7.50;99.90
4356;DHT22;64374;51.482;7.408;2023-12-20T11:14:17;7.40;99.90
4356;DHT22;64374;51.482;7.408;2023-12-20T11:17:07;7.70;99.90
4356;DHT22;64374;51.482;7.408;2023-12-20T11:20:11;7.50;99.90
4356;DHT22;64374;51.482;7.408;2023-12-20T11:23:15;7.50;99.90
4356;DHT22;64374;51.482;7.408;2023-12-20T11:26:02;7.70;99.90
4356;DHT22;64374;51.482;7.408;2023-12-20T11:28:49;7.70;99.90
4356;DHT22;64374;51.482;7.408;2023-12-20T11:31:40;7.80;99.90
4356;DHT22;64374;51.482;7.408;2023-12-20T11:34:31;7.90;99.90
4356;DHT22;64374;51.482;7.408;2023-12-20T11:37:28;8.00;99.90
4356;DHT22;64374;51.482;7.408;2023-12-20T11:40:17;7.80;99.90
4356;DHT22;64374;51.482;7.408;2023-12-20T11:43:04;7.70;99.90
4356;DHT22;64374;51.482;7.408;2023-12-20T11:45:52;7.80;99.90
4356;DHT22;64374;51.482;7.408;2023-12-20T11:48:39;7.70;99.90
4356;DHT22;64374;51.482;7.408;2023-12-20T11:51:27;8.10;99.90
4356;DHT22;64374;51.482;7.408;2023-12-20T11:54:15;7.80;99.90
4356;DHT22;64374;51.482;7.408;2023-12-20T11:57:02;7.90;99.90
4356;DHT22;64374;51.482;7.408;2023-12-20T11:59:49;7.80;99.90
4356;DHT22;64374;51.482;7.408;2023-12-20T12:02:18;7.60;99.90
4356;DHT22;64374;51.482;7.408;2023-12-20T12:04:48;7.80;99.90
4356;DHT22;64374;51.482;7.408;2023-12-20T12:07:19;8.10;99.90
4356;DHT22;64374;51.482;7.408;2023-12-20T12:09:48;8.20;99.90
4356;DHT22;64374;51.482;7.408;2023-12-20T12:12:17;8.00;99.90
4356;DHT22;64374;51.482;7.408;2023-12-20T12:14:48;7.90;99.90
4356;DHT22;64374;51.482;7.408;2023-12-20T12:17:17;7.90;99.90
4356;DHT22;64374;51.482;7.408;2023-12-20T12:19:45;7.80;99.90
4356;DHT22;64374;51.482;7.408;2023-12-20T12:22:21;7.70;99.90
4356;DHT22;64374;51.482;7.408;2023-12-20T12:24:53;7.90;99.90
4356;DHT22;64374;51.482;7.408;2023-12-20T12:27:22;7.50;99.90
4356;DHT22;64374;51.482;7.408;2023-12-20T12:30:01;7.70;99.90
4356;DHT22;64374;51.482;7.408;2023-12-20T12:32:34;8.10;99.90
4356;DHT22;64374;51.482;7.408;2023-12-20T12:35:04;7.90;99.90
4356;DHT22;64374;51.482;7.408;2023-12-20T12:37:53;7.60;99.90
4356;DHT22;64374;51.482;7.408;2023-12-20T12:40:40;7.60;99.90
4356;DHT22;64374;51.482;7.408;2023-12-20T12:43:26;7.70;99.90
4356;DHT22;64374;51.482;7.408;2023-12-20T12:46:16;7.70;99.90
4356;DHT22;64374;51.482;7.408;2023-12-20T12:49:03;7.80;99.90
4356;DHT22;64374;51.482;7.408;2023-12-20T12:51:52;7.80;99.90
4356;DHT22;64374;51.482;7.408;2023-12-20T12:54:43;7.60;99.90
4356;DHT22;64374;51.482;7.408;2023-12-20T12:57:30;7.50;99.90
4356;DHT22;64374;51.482;7.408;2023-12-20T13:00:18;7.60;99.90
4356;DHT22;64374;51.482;7.408;2023-12-20T13:03:07;7.90;99.90
4356;DHT22;64374;51.482;7.408;2023-12-20T13:05:54;7.70;99.90
4356;DHT22;64374;51.482;7.408;2023-12-20T13:08:40;8.00;99.90
4356;DHT22;64374;51.482;7.408;2023-12-20T13:11:12;7.90;99.90
4356;DHT22;64374;51.482;7.408;2023-12-20T13:13:41;7.90;99.90
4356;DHT22;64374;51.482;7.408;2023-12-20T13:16:09;7.80;99.90
4356;DHT22;64374;51.482;7.408;2023-12-20T13:18:41;7.90;99.90
4356;DHT22;64374;51.482;7.408;2023-12-20T13:21:12;7.90;99.90
4356;DHT22;64374;51.482;7.408;2023-12-20T13:23:40;8.00;99.90
4356;DHT22;64374;51.482;7.408;2023-12-20T13:26:12;8.00;99.90
4356;DHT22;64374;51.482;7.408;2023-12-20T13:28:43;8.30;99.90
4356;DHT22;64374;51.482;7.408;2023-12-20T13:31:11;8.30;99.90
4356;DHT22;64374;51.482;7.408;2023-12-20T13:33:39;8.20;99.90
4356;DHT22;64374;51.482;7.408;2023-12-20T13:36:08;8.20;99.90
4356;DHT22;64374;51.482;7.408;2023-12-20T13:38:38;8.30;99.90
4356;DHT22;64374;51.482;7.408;2023-12-20T13:41:07;8.00;99.90
4356;DHT22;64374;51.482;7.408;2023-12-20T13:43:37;7.80;99.90
4356;DHT22;64374;51.482;7.408;2023-12-20T13:46:05;8.10;99.90
4356;DHT22;64374;51.482;7.408;2023-12-20T13:48:34;7.90;99.90
4356;DHT22;64374;51.482;7.408;2023-12-20T13:51:04;8.10;99.90
4356;DHT22;64374;51.482;7.408;2023-12-20T13:53:32;8.00;99.90
4356;DHT22;64374;51.482;7.408;2023-12-20T13:56:01;7.90;99.90
4356;DHT22;64374;51.482;7.408;2023-12-20T13:58:29;8.00;99.90
4356;DHT22;64374;51.482;7.408;2023-12-20T14:01:28;7.70;99.90
4356;DHT22;64374;51.482;7.408;2023-12-20T14:04:17;7.50;99.90
4356;DHT22;64374;51.482;7.408;2023-12-20T14:07:28;7.60;99.90
4356;DHT22;64374;51.482;7.408;2023-12-20T14:10:16;7.60;99.90
4356;DHT22;64374;51.482;7.408;2023-12-20T14:13:03;7.60;99.90
4356;DHT22;64374;51.482;7.408;2023-12-20T14:15:50;7.60;99.90
4356;DHT22;64374;51.482;7.408;2023-12-20T14:18:42;7.80;99.90
4356;DHT22;64374;51.482;7.408;2023-12-20T14:21:28;7.90;99.90
4356;DHT22;64374;51.482;7.408;2023-12-20T14:24:19;8.00;99.90
4356;DHT22;64374;51.482;7.408;2023-12-20T14:27:06;8.00;99.90
4356;DHT22;64374;51.482;7.408;2023-12-20T14:29:54;7.80;99.90
4356;DHT22;64374;51.482;7.408;2023-12-20T14:32:46;7.60;99.90
4356;DHT22;64374;51.482;7.408;2023-12-20T14:35:37;7.60;99.90
4356;DHT22;64374;51.482;7.408;2023-12-20T14:38:23;7.50;99.90
4356;DHT22;64374;51.482;7.408;2023-12-20T14:41:14;7.70;99.90
4356;DHT22;64374;51.482;7.408;2023-12-20T14:44:03;7.60;99.90
4356;DHT22;64374;51.482;7.408;2023-12-20T14:46:50;7.70;99.90
4356;DHT22;64374;51.482;7.408;2023-12-20T14:49:37;7.50;99.90
4356;DHT22;64374;51.482;7.408;2023-12-20T14:52:32;7.70;99.90
4356;DHT22;64374;51.482;7.408;2023-12-20T14:55:21;7.70;99.90
4356;DHT22;64374;51.482;7.408;2023-12-20T14:58:08;7.80;99.90
4356;DHT22;64374;51.482;7.408;2023-12-20T15:00:58;7.80;99.90
4356;DHT22;64374;51.482;7.408;2023-12-20T15:03:45;7.70;99.90
4356;DHT22;64374;51.482;7.408;2023-12-20T15:06:32;7.90;99.90
4356;DHT22;64374;51.482;7.408;2023-12-20T15:09:20;7.70;99.90
4356;DHT22;64374;51.482;7.408;2023-12-20T15:12:07;8.00;99.90
4356;DHT22;64374;51.482;7.408;2023-12-20T15:14:55;7.90;99.90
4356;DHT22;64374;51.482;7.408;2023-12-20T15:17:44;7.90;99.90
4356;DHT22;64374;51.482;7.408;2023-12-20T15:20:45;7.80;99.90
4356;DHT22;64374;51.482;7.408;2023-12-20T15:23:35;7.80;99.90
4356;DHT22;64374;51.482;7.408;2023-12-20T15:26:26;7.70;99.90
4356;DHT22;64374;51.482;7.408;2023-12-20T15:29:14;7.70;99.90
4356;DHT22;64374;51.482;7.408;2023-12-20T15:31:43;7.80;99.90
4356;DHT22;64374;51.482;7.408;2023-12-20T15:34:14;7.80;99.90
4356;DHT22;64374;51.482;7.408;2023-12-20T15:36:43;7.70;99.90
4356;DHT22;64374;51.482;7.408;2023-12-20T15:39:11;7.80;99.90
4356;DHT22;64374;51.482;7.408;2023-12-20T15:41:42;8.10;99.90
4356;DHT22;64374;51.482;7.408;2023-12-20T15:44:10;8.10;99.90
4356;DHT22;64374;51.482;7.408;2023-12-20T15:46:41;8.10;99.90
4356;DHT22;64374;51.482;7.408;2023-12-20T15:49:11;8.30;99.90
4356;DHT22;64374;51.482;7.408;2023-12-20T15:51:40;8.20;99.90
4356;DHT22;64374;51.482;7.408;2023-12-20T15:54:10;8.10;99.90
4356;DHT22;64374;51.482;7.408;2023-12-20T15:56:50;7.90;99.90
4356;DHT22;64374;51.482;7.408;2023-12-20T15:59:21;7.90;99.90
4356;DHT22;64374;51.482;7.408;2023-12-20T16:01:49;8.00;99.90
4356;DHT22;64374;51.482;7.408;2023-12-20T16:04:39;8.00;99.90
4356;DHT22;64374;51.482;7.408;2023-12-20T16:07:26;8.20;99.90
4356;DHT22;64374;51.482;7.408;2023-12-20T16:10:13;8.20;99.90
4356;DHT22;64374;51.482;7.408;2023-12-20T16:13:04;8.50;99.90
4356;DHT22;64374;51.482;7.408;2023-12-20T16:15:53;8.20;99.90
4356;DHT22;64374;51.482;7.408;2023-12-20T16:18:43;8.20;99.90
4356;DHT22;64374;51.482;7.408;2023-12-20T16:21:30;8.10;99.90
4356;DHT22;64374;51.482;7.408;2023-12-20T16:24:17;8.30;99.90
4356;DHT22;64374;51.482;7.408;2023-12-20T16:27:04;8.30;99.90
4356;DHT22;64374;51.482;7.408;2023-12-20T16:29:52;8.00;99.90
4356;DHT22;64374;51.482;7.408;2023-12-20T16:32:38;8.10;99.90
4356;DHT22;64374;51.482;7.408;2023-12-20T16:35:25;8.30;99.90
4356;DHT22;64374;51.482;7.408;2023-12-20T16:38:15;8.10;99.90
4356;DHT22;64374;51.482;7.408;2023-12-20T16:41:02;8.30;99.90
4356;DHT22;64374;51.482;7.408;2023-12-20T16:43:49;8.30;99.90
4356;DHT22;64374;51.482;7.408;2023-12-20T16:46:37;8.30;99.90
4356;DHT22;64374;51.482;7.408;2023-12-20T16:49:27;8.30;99.90
4356;DHT22;64374;51.482;7.408;2023-12-20T16:52:14;8.30;99.90
4356;DHT22;64374;51.482;7.408;2023-12-20T16:55:04;8.50;99.90
4356;DHT22;64374;51.482;7.408;2023-12-20T16:57:52;8.40;99.90
4356;DHT22;64374;51.482;7.408;2023-12-20T17:00:41;8.20;99.90
4356;DHT22;64374;51.482;7.408;2023-12-20T17:03:29;8.10;99.90
4356;DHT22;64374;51.482;7.408;2023-12-20T17:06:16;8.20;99.90
4356;DHT22;64374;51.482;7.408;2023-12-20T17:09:02;8.20;99.90
4356;DHT22;64374;51.482;7.408;2023-12-20T17:11:52;7.80;99.90
4356;DHT22;64374;51.482;7.408;2023-12-20T17:14:39;8.00;99.90
4356;DHT22;64374;51.482;7.408;2023-12-20T17:17:28;8.10;99.90
4356;DHT22;64374;51.482;7.408;2023-12-20T17:20:17;7.80;99.90
4356;DHT22;64374;51.482;7.408;2023-12-20T17:23:17;8.10;99.90
4356;DHT22;64374;51.482;7.408;2023-12-20T17:26:06;8.10;99.90
4356;DHT22;64374;51.482;7.408;2023-12-20T17:28:55;8.10;99.90
4356;DHT22;64374;51.482;7.408;2023-12-20T17:31:42;8.20;99.90
4356;DHT22;64374;51.482;7.408;2023-12-20T17:34:29;8.30;99.90
4356;DHT22;64374;51.482;7.408;2023-12-20T17:37:19;8.10;99.90
4356;DHT22;64374;51.482;7.408;2023-12-20T17:40:07;7.80;99.90
4356;DHT22;64374;51.482;7.408;2023-12-20T17:42:57;7.80;99.90
4356;DHT22;64374;51.482;7.408;2023-12-20T17:45:44;7.80;99.90
4356;DHT22;64374;51.482;7.408;2023-12-20T17:48:38;7.70;99.90
4356;DHT22;64374;51.482;7.408;2023-12-20T17:51:25;7.80;99.90
4356;DHT22;64374;51.482;7.408;2023-12-20T17:54:23;8.10;99.90